< Typhoon 201214 2012 Season Typhoon 201216 >
Typhoon 201215 (BOLAVEN)
General InformationTrack Information on Google MapsDetailed Wind InformationAccess Analytics MapList of All Images || NewsDisaster Info.WeblogTrackbackTyphoon FrontTwiphoonTyphoon Now!Typhoon ImaginationResourceGoogle EarthGE AnimationAtom FeedGeoJSON
Detalied Best Track (Time Zone = UTC)
Year Month Day Hour Lat. Long. Pressure (hPa) Wind (kt) Class Image Chart
2012 8 19 06 14.1 142.1 1006 0 2 Image Chart
2012 8 19 12 14.8 142.1 1008 0 2 Image Chart
2012 8 19 18 16.1 142.0 1006 0 2 Image Chart
2012 8 20 00 16.8 141.9 1004 0 2 Image Chart
2012 8 20 06 17.4 141.4 1000 35 3 Image Chart
2012 8 20 12 17.9 141.3 996 40 3 Image Chart
2012 8 20 18 18.1 141.2 992 45 3 Image Chart
2012 8 21 00 18.2 140.8 985 50 4 Image Chart
2012 8 21 06 18.4 140.5 985 50 4 Image Chart
2012 8 21 12 18.9 140.2 975 65 5 Image Chart
2012 8 21 18 19.1 139.5 970 70 5 Image Chart
2012 8 22 00 19.2 138.8 970 70 5 Image Chart
2012 8 22 06 19.3 138.0 965 70 5 Image Chart
2012 8 22 12 19.5 137.5 965 70 5 Image Chart
2012 8 22 18 19.5 136.5 965 70 5 Image Chart
2012 8 23 00 19.7 135.9 965 70 5 Image Chart
2012 8 23 06 20.0 135.3 960 75 5 Image Chart
2012 8 23 12 20.2 134.6 960 75 5 Image Chart
2012 8 23 18 20.4 134.1 960 75 5 Image Chart
2012 8 24 00 21.1 133.8 960 75 5 Image Chart
2012 8 24 06 21.7 133.2 955 75 5 Image Chart
2012 8 24 12 22.2 133.0 950 80 5 Image Chart
2012 8 24 18 22.9 132.7 940 80 5 Image Chart
2012 8 25 00 23.5 132.1 930 85 5 Image Chart
2012 8 25 03 23.8 131.8 925 85 5 Image Chart
2012 8 25 06 24.2 131.3 920 90 5 Image Chart
2012 8 25 09 24.3 130.9 915 95 5 Image Chart
2012 8 25 12 24.3 130.7 910 100 5 Image Chart
2012 8 25 15 24.5 130.4 920 95 5 Image Chart
2012 8 25 18 24.7 130.2 920 95 5 Image Chart
2012 8 25 21 25.0 129.8 920 95 5 Image Chart
2012 8 26 00 25.3 129.5 925 90 5 Image Chart
2012 8 26 03 25.6 129.2 925 90 5 Image Chart
2012 8 26 06 25.9 129.0 925 90 5 Image Chart
2012 8 26 09 26.4 128.6 925 90 5 Image Chart
2012 8 26 12 26.6 128.0 930 85 5 Image Chart
2012 8 26 15 26.9 127.8 935 85 5 Image Chart
2012 8 26 18 27.5 127.4 940 80 5 Image Chart
2012 8 26 21 27.9 127.1 945 75 5 Image Chart
2012 8 27 00 28.4 126.9 955 70 5 Image Chart
2012 8 27 03 29.1 126.3 955 70 5 Image Chart
2012 8 27 06 29.9 126.0 960 65 5 Image Chart
2012 8 27 12 31.3 125.6 960 65 5 Image Chart
2012 8 27 18 33.0 125.5 960 65 5 Image Chart
2012 8 28 00 34.8 125.1 960 65 5 Image Chart
2012 8 28 06 36.6 124.8 965 60 4 Image Chart
2012 8 28 12 38.7 124.5 975 55 4 Image Chart
2012 8 28 18 41.6 125.8 980 45 3 Image Chart
2012 8 29 00 44.3 128.3 980 45 3 Image Chart
2012 8 29 06 46.0 130.0 982 0 6 Image Chart
2012 8 29 12 47.7 132.4 984 0 6 Image Chart
2012 8 29 18 50.0 134.4 986 0 6 Image Chart
2012 8 30 00 51.9 139.7 988 0 6 Image Chart
2012 8 30 06 52.6 141.6 986 0 6 Image Chart
2012 8 30 12 53.7 145.9 988 0 6 Image Chart
2012 8 30 18 54.9 148.0 988 0 6 Image Chart
2012 8 31 00 54.8 150.3 990 0 6 Image Chart
2012 8 31 06 55.0 153.2 992 0 6 Image Chart
2012 8 31 12 55.3 163.7 996 0 6 Image Chart
2012 8 31 18 55.0 167.2 994 0 6 Image Chart
2012 9 1 00 54.2 172.4 994 0 6 Image Chart
2012 9 1 06 53.9 174.9 992 0 6 Image Chart
2012 9 1 12 53.5 178.3 990 0 6 Image Chart
2012 9 1 18 53.7 181.9 990 0 6 Image Chart
Japan Meteorological Agency Best Track Data | Correction Date : 2012-09-26
< Typhoon 201214 2012 Season Typhoon 201216 >

Help